Time;durP1;ratioP1;P1;durP2;ratioP2;P2;SDS_P1;SDS_P2;PMS_P1;PMS_P2;Temp;Humidity;BMP_temperature;BMP_pressure;BME280_temperature;BME280_humidity;BME280_pressure;Samples;Min_cycle;Max_cycle;Signal;HPM_P1;HPM_P2
2021/11/04 00:00:48;;;;;;;0.50;0.40;;;7.10;99.90;;;;;;4980802;28;20026;-78
2021/11/04 00:03:14;;;;;;;0.80;0.65;;;7.10;99.90;;;;;;5004644;28;20271;-80
2021/11/04 00:05:40;;;;;;;1.00;0.80;;;7.10;99.90;;;;;;5006253;28;20031;-80
2021/11/04 00:08:09;;;;;;;0.90;0.70;;;7.10;99.90;;;;;;5005866;28;20049;-79
2021/11/04 00:10:35;;;;;;;0.85;0.40;;;7.10;99.90;;;;;;5007027;28;20033;-78
2021/11/04 00:13:02;;;;;;;0.68;0.52;;;7.10;99.90;;;;;;5005334;28;20031;-78
2021/11/04 00:15:27;;;;;;;0.52;0.50;;;7.10;99.90;;;;;;4987949;28;20050;-78
2021/11/04 00:17:54;;;;;;;0.30;0.30;;;7.10;99.90;;;;;;5007175;28;20049;-79
2021/11/04 00:20:20;;;;;;;0.60;0.60;;;7.10;99.90;;;;;;5006486;28;20022;-79
2021/11/04 00:22:47;;;;;;;0.50;0.45;;;7.10;99.90;;;;;;5005593;28;20033;-80
2021/11/04 00:25:13;;;;;;;0.85;0.70;;;7.10;99.90;;;;;;5006037;28;20026;-80
2021/11/04 00:27:39;;;;;;;0.50;0.50;;;7.00;99.90;;;;;;4987596;28;20034;-80
2021/11/04 00:30:07;;;;;;;0.50;0.50;;;7.10;99.90;;;;;;5005394;28;20475;-79
2021/11/04 00:32:33;;;;;;;2.30;0.55;;;7.10;99.90;;;;;;4988478;28;20057;-81
2021/11/04 00:34:59;;;;;;;0.63;0.60;;;7.10;99.90;;;;;;4985866;28;20037;-80
2021/11/04 00:37:25;;;;;;;0.55;0.55;;;7.10;99.90;;;;;;4985896;28;20022;-81
2021/11/04 00:39:51;;;;;;;0.73;0.70;;;7.10;99.90;;;;;;5003055;28;20041;-80
2021/11/04 00:42:16;;;;;;;0.57;0.57;;;7.10;99.90;;;;;;5002379;28;20034;-80
2021/11/04 00:44:42;;;;;;;0.98;0.70;;;7.00;99.90;;;;;;5002745;28;20034;-80
2021/11/04 00:47:08;;;;;;;0.30;0.30;;;7.00;99.90;;;;;;5002231;28;20026;-79
2021/11/04 00:49:34;;;;;;;0.45;0.43;;;7.00;99.90;;;;;;4985166;28;20089;-78
2021/11/04 00:52:00;;;;;;;0.93;0.68;;;7.00;99.90;;;;;;5001051;28;20057;-78
2021/11/04 00:54:25;;;;;;;0.90;0.80;;;7.00;99.90;;;;;;5000042;28;20038;-78
2021/11/04 00:56:51;;;;;;;0.30;0.30;;;7.00;99.90;;;;;;4998966;28;20037;-80
2021/11/04 00:59:17;;;;;;;1.17;0.50;;;7.00;99.90;;;;;;4998975;28;20054;-80
2021/11/04 01:01:43;;;;;;;1.25;0.80;;;7.00;99.90;;;;;;4999915;28;20030;-81
2021/11/04 01:04:08;;;;;;;1.17;0.52;;;7.00;99.90;;;;;;4999297;28;20029;-80
2021/11/04 01:06:34;;;;;;;0.75;0.47;;;7.00;99.90;;;;;;5000362;28;20027;-79
2021/11/04 01:09:00;;;;;;;0.52;0.35;;;7.00;99.90;;;;;;5000073;28;20415;-81
2021/11/04 01:11:26;;;;;;;0.52;0.52;;;7.00;99.90;;;;;;5000106;28;20033;-81
2021/11/04 01:13:52;;;;;;;0.75;0.75;;;6.90;99.90;;;;;;4998609;28;20038;-79
2021/11/04 01:16:18;;;;;;;0.50;0.50;;;6.90;99.90;;;;;;4981556;28;20030;-80
2021/11/04 01:18:45;;;;;;;0.60;0.60;;;6.80;99.90;;;;;;4999954;28;20057;-78
2021/11/04 01:21:11;;;;;;;0.60;0.60;;;6.80;99.90;;;;;;4999225;28;20471;-80
2021/11/04 01:23:37;;;;;;;0.80;0.70;;;6.80;99.90;;;;;;4999271;28;20041;-79
2021/11/04 01:26:04;;;;;;;0.68;0.68;;;6.80;99.90;;;;;;5010476;28;20018;-76
2021/11/04 01:28:30;;;;;;;0.85;0.80;;;6.90;99.90;;;;;;4982141;28;20458;-80
2021/11/04 01:30:55;;;;;;;1.23;0.88;;;6.90;99.90;;;;;;4995179;28;20033;-80
2021/11/04 01:33:21;;;;;;;1.00;0.93;;;6.80;99.90;;;;;;4995909;28;20128;-79
2021/11/04 01:35:47;;;;;;;0.90;0.90;;;6.80;99.90;;;;;;4999141;28;20061;-80
2021/11/04 01:38:13;;;;;;;0.68;0.68;;;6.80;99.90;;;;;;5001145;28;20026;-79
2021/11/04 01:40:39;;;;;;;1.50;1.08;;;6.80;99.90;;;;;;5003099;28;20073;-80
2021/11/04 01:43:05;;;;;;;0.52;0.50;;;6.80;99.90;;;;;;4983540;28;20020;-80
2021/11/04 01:45:32;;;;;;;0.90;0.90;;;6.80;99.90;;;;;;5011588;28;20079;-77
2021/11/04 01:48:00;;;;;;;4.35;0.95;;;6.80;99.90;;;;;;4998832;28;20038;-80
2021/11/04 01:50:26;;;;;;;0.73;0.73;;;6.80;99.90;;;;;;5001856;28;20025;-80
2021/11/04 01:52:51;;;;;;;0.60;0.60;;;6.80;99.90;;;;;;4998587;28;20030;-79
2021/11/04 01:55:26;;;;;;;0.80;0.65;;;6.80;99.90;;;;;;4999132;28;20045;-79
2021/11/04 01:57:52;;;;;;;0.50;0.50;;;6.80;99.90;;;;;;4999283;28;20054;-80
2021/11/04 02:00:22;;;;;;;0.70;0.50;;;6.70;99.90;;;;;;4999612;28;20018;-81
2021/11/04 02:03:24;;;;;;;0.40;0.40;;;6.70;99.90;;;;;;5000208;28;20109;-79
2021/11/04 02:05:53;;;;;;;0.95;0.40;;;6.70;99.90;;;;;;5003309;28;20022;-80
2021/11/04 02:08:27;;;;;;;1.63;0.50;;;6.70;99.90;;;;;;5003772;28;20509;-81
2021/11/04 02:11:04;;;;;;;0.40;0.40;;;6.70;99.90;;;;;;4986599;28;20022;-81
2021/11/04 02:13:37;;;;;;;1.23;0.47;;;6.70;99.90;;;;;;5002317;28;20126;-80
2021/11/04 02:16:07;;;;;;;0.22;0.22;;;6.70;99.90;;;;;;4999808;28;20026;-80
2021/11/04 02:18:34;;;;;;;0.47;0.35;;;6.60;99.90;;;;;;5002317;28;20042;-80
2021/11/04 02:21:09;;;;;;;0.75;0.50;;;6.60;99.90;;;;;;5002039;28;20023;-80
2021/11/04 02:23:42;;;;;;;1.90;0.60;;;6.50;99.90;;;;;;5002002;28;20368;-80
2021/11/04 02:26:09;;;;;;;0.40;0.30;;;6.50;99.90;;;;;;5004461;28;20027;-79
2021/11/04 02:28:39;;;;;;;2.53;0.60;;;6.50;99.90;;;;;;5005571;28;20031;-80
2021/11/04 02:31:07;;;;;;;0.85;0.22;;;6.40;99.90;;;;;;5002527;28;20077;-78
2021/11/04 02:33:34;;;;;;;0.50;0.40;;;6.40;99.90;;;;;;5004772;28;20035;-79
2021/11/04 02:36:00;;;;;;;0.40;0.40;;;6.30;99.90;;;;;;5002116;28;20037;-80
2021/11/04 02:38:30;;;;;;;0.47;0.30;;;6.20;99.90;;;;;;5003280;28;20030;-80
2021/11/04 02:40:57;;;;;;;0.57;0.40;;;6.30;99.90;;;;;;5002961;28;20471;-78
2021/11/04 02:43:23;;;;;;;0.30;0.30;;;6.20;99.90;;;;;;5003937;28;20016;-80
2021/11/04 02:45:49;;;;;;;0.40;0.40;;;6.20;99.90;;;;;;5002131;28;20030;-80
2021/11/04 02:48:17;;;;;;;0.52;0.50;;;6.10;99.90;;;;;;5001293;28;20037;-80
2021/11/04 02:50:48;;;;;;;0.30;0.30;;;6.10;99.90;;;;;;5001471;28;20026;-78
2021/11/04 02:53:20;;;;;;;0.20;0.20;;;6.00;99.90;;;;;;5001974;28;20026;-80
2021/11/04 02:55:47;;;;;;;0.23;0.23;;;5.90;99.90;;;;;;4983528;28;20764;-80
2021/11/04 02:58:14;;;;;;;0.30;0.30;;;5.90;99.90;;;;;;5002049;28;20027;-79
2021/11/04 03:00:43;;;;;;;0.30;0.30;;;5.80;99.90;;;;;;5001214;28;20029;-81
2021/11/04 03:03:09;;;;;;;0.20;0.20;;;5.80;99.90;;;;;;5003882;28;20026;-79
2021/11/04 03:05:35;;;;;;;0.35;0.30;;;5.70;99.90;;;;;;5009006;28;20027;-79
2021/11/04 03:08:01;;;;;;;0.43;0.20;;;5.70;99.90;;;;;;5005861;28;20029;-80
2021/11/04 03:10:26;;;;;;;0.40;0.40;;;5.70;99.90;;;;;;5002239;28;20035;-80
2021/11/04 03:12:52;;;;;;;1.42;0.40;;;5.60;99.90;;;;;;5000088;28;20029;-80
2021/11/04 03:15:21;;;;;;;0.10;0.10;;;5.70;99.90;;;;;;5001790;28;20028;-80
2021/11/04 03:17:48;;;;;;;0.20;0.20;;;5.60;99.90;;;;;;5001007;28;20034;-80
2021/11/04 03:20:17;;;;;;;1.75;0.25;;;5.60;99.90;;;;;;5000970;28;20026;-79
2021/11/04 03:22:43;;;;;;;0.47;0.30;;;5.60;99.90;;;;;;5001399;28;20093;-80
2021/11/04 03:25:11;;;;;;;0.30;0.30;;;5.60;99.90;;;;;;4983838;28;20026;-80
2021/11/04 03:27:41;;;;;;;0.20;0.20;;;5.60;99.90;;;;;;5000621;28;20065;-79
2021/11/04 03:30:09;;;;;;;0.20;0.20;;;5.60;99.90;;;;;;4992802;28;20049;-80
2021/11/04 03:32:37;;;;;;;0.20;0.20;;;5.50;99.90;;;;;;5000901;28;20027;-80
2021/11/04 03:35:05;;;;;;;0.20;0.20;;;5.50;99.90;;;;;;5000778;28;20494;-80
2021/11/04 03:37:32;;;;;;;0.82;0.40;;;5.50;99.90;;;;;;5002193;28;20050;-79
2021/11/04 03:39:59;;;;;;;0.10;0.10;;;5.50;99.90;;;;;;5001311;28;20365;-79
2021/11/04 03:42:26;;;;;;;0.10;0.10;;;5.60;99.90;;;;;;5002447;28;20360;-80
2021/11/04 03:44:53;;;;;;;0.75;0.52;;;5.50;99.90;;;;;;4984235;28;20082;-80
2021/11/04 03:47:20;;;;;;;0.20;0.20;;;5.50;99.90;;;;;;5003165;28;20027;-81
2021/11/04 03:49:49;;;;;;;0.30;0.30;;;5.50;99.90;;;;;;5000952;28;20154;-79
2021/11/04 03:52:16;;;;;;;0.55;0.30;;;5.50;99.90;;;;;;5001371;28;20022;-80
2021/11/04 03:54:43;;;;;;;0.45;0.20;;;5.40;99.90;;;;;;5002502;28;20050;-80
2021/11/04 03:57:08;;;;;;;0.68;0.30;;;5.40;99.90;;;;;;5001179;28;20487;-79
2021/11/04 03:59:34;;;;;;;0.50;0.30;;;5.40;99.90;;;;;;4996818;28;20476;-80
2021/11/04 04:02:00;;;;;;;0.30;0.25;;;5.40;99.90;;;;;;4993319;28;20225;-80
2021/11/04 04:04:26;;;;;;;0.40;0.40;;;5.40;99.90;;;;;;5001180;28;20508;-79
2021/11/04 04:06:53;;;;;;;0.43;0.43;;;5.40;99.90;;;;;;5000866;28;20018;-80
2021/11/04 04:09:21;;;;;;;1.38;0.25;;;5.40;99.90;;;;;;4999809;28;20037;-79
2021/11/04 04:11:47;;;;;;;0.45;0.40;;;5.40;99.90;;;;;;4999095;28;20117;-79
2021/11/04 04:14:13;;;;;;;0.85;0.45;;;5.40;99.90;;;;;;4998354;28;20037;-80
2021/11/04 04:16:39;;;;;;;0.77;0.38;;;5.40;99.90;;;;;;4999952;28;20109;-78
2021/11/04 04:19:05;;;;;;;0.25;0.25;;;5.40;99.90;;;;;;5000307;28;20475;-78
2021/11/04 04:21:30;;;;;;;0.43;0.40;;;5.40;99.90;;;;;;4999682;28;20022;-78
2021/11/04 04:23:56;;;;;;;0.40;0.40;;;5.30;99.90;;;;;;5001067;28;20023;-80
2021/11/04 04:26:22;;;;;;;0.47;0.40;;;5.30;99.90;;;;;;4983532;28;20034;-79
2021/11/04 04:28:47;;;;;;;0.30;0.20;;;5.30;99.90;;;;;;4997438;28;20026;-82
2021/11/04 04:31:13;;;;;;;0.73;0.28;;;5.40;99.90;;;;;;4989436;28;20476;-80
2021/11/04 04:33:39;;;;;;;0.90;0.40;;;5.40;99.90;;;;;;4996694;28;20030;-80
2021/11/04 04:36:05;;;;;;;0.30;0.30;;;5.40;99.90;;;;;;5001089;28;20519;-81
2021/11/04 04:38:31;;;;;;;0.20;0.20;;;5.40;99.90;;;;;;5000500;28;20037;-81
2021/11/04 04:40:56;;;;;;;0.40;0.40;;;5.40;99.90;;;;;;5004054;28;20026;-81
2021/11/04 04:43:22;;;;;;;0.65;0.50;;;5.40;99.90;;;;;;5012201;28;20136;-79
2021/11/04 04:45:49;;;;;;;0.38;0.32;;;5.40;99.90;;;;;;5016293;28;20030;-80
2021/11/04 04:48:15;;;;;;;0.40;0.38;;;5.40;99.90;;;;;;5015821;28;20058;-79
2021/11/04 04:50:41;;;;;;;0.40;0.40;;;5.40;99.90;;;;;;4999579;28;20082;-79
2021/11/04 04:53:08;;;;;;;0.47;0.47;;;5.40;99.90;;;;;;5015792;28;20041;-80
2021/11/04 04:55:35;;;;;;;0.45;0.45;;;5.40;99.90;;;;;;5015480;28;20019;-79
2021/11/04 04:58:01;;;;;;;0.47;0.47;;;5.40;99.90;;;;;;5010325;28;20038;-79
2021/11/04 05:00:27;;;;;;;0.88;0.68;;;5.40;99.90;;;;;;4984398;28;20086;-82
2021/11/04 05:02:53;;;;;;;0.40;0.40;;;5.50;99.90;;;;;;5002138;28;20086;-81
2021/11/04 05:05:19;;;;;;;0.40;0.40;;;5.50;99.90;;;;;;5001168;28;20037;-82
2021/11/04 05:07:45;;;;;;;0.50;0.50;;;5.40;99.90;;;;;;5001548;28;20053;-81
2021/11/04 05:10:12;;;;;;;0.50;0.50;;;5.50;99.90;;;;;;5001280;28;20026;-81
2021/11/04 05:12:38;;;;;;;0.55;0.55;;;5.50;99.90;;;;;;5002296;28;20042;-81
2021/11/04 05:15:05;;;;;;;1.63;0.65;;;5.50;99.90;;;;;;5017244;23;20054;-81
2021/11/04 05:17:31;;;;;;;0.95;0.40;;;5.50;99.90;;;;;;5001959;28;20030;-81
2021/11/04 05:19:57;;;;;;;1.13;0.47;;;5.40;99.90;;;;;;5002519;28;20027;-81
2021/11/04 05:22:23;;;;;;;0.40;0.40;;;5.50;99.90;;;;;;5002374;28;20025;-81
2021/11/04 05:24:49;;;;;;;0.30;0.30;;;5.50;99.90;;;;;;5003848;28;20030;-81
2021/11/04 05:27:15;;;;;;;2.38;0.30;;;5.50;99.90;;;;;;5006859;28;20033;-80
2021/11/04 05:29:41;;;;;;;0.73;0.40;;;5.50;99.90;;;;;;5009916;28;20026;-80
2021/11/04 05:32:07;;;;;;;0.10;0.10;;;5.50;99.90;;;;;;4988087;28;20030;-81
2021/11/04 05:34:37;;;;;;;0.32;0.28;;;5.40;99.90;;;;;;5005270;28;20180;-80
2021/11/04 05:37:04;;;;;;;0.10;0.10;;;5.40;99.90;;;;;;4986735;28;20030;-82
2021/11/04 05:39:30;;;;;;;1.05;0.10;;;5.40;99.90;;;;;;5002329;28;20090;-82
2021/11/04 05:41:56;;;;;;;0.10;0.10;;;5.40;99.90;;;;;;4984886;28;20022;-82
2021/11/04 05:44:25;;;;;;;0.10;0.10;;;5.30;99.90;;;;;;5003790;28;20026;-82
2021/11/04 05:46:50;;;;;;;1.10;0.77;;;5.30;99.90;;;;;;5015472;28;20026;-82
2021/11/04 05:49:16;;;;;;;0.75;0.63;;;5.30;99.90;;;;;;5016171;28;20072;-81
2021/11/04 05:51:42;;;;;;;0.35;0.28;;;5.30;99.90;;;;;;5009543;28;20034;-81
2021/11/04 05:54:08;;;;;;;0.10;0.10;;;5.30;99.90;;;;;;5004521;28;20030;-82
2021/11/04 05:56:33;;;;;;;0.20;0.20;;;5.30;99.90;;;;;;4987297;28;20037;-83
2021/11/04 05:58:59;;;;;;;0.32;0.20;;;5.30;99.90;;;;;;5005003;28;20057;-82
2021/11/04 06:01:28;;;;;;;1.25;0.60;;;5.30;99.90;;;;;;4987181;28;20022;-82
2021/11/04 06:03:54;;;;;;;0.43;0.30;;;5.20;99.90;;;;;;5005066;28;20015;-82
2021/11/04 06:06:19;;;;;;;0.22;0.22;;;5.20;99.90;;;;;;5005432;28;20049;-81
2021/11/04 06:08:45;;;;;;;1.52;0.38;;;5.20;99.90;;;;;;5004531;28;20046;-83
2021/11/04 06:11:11;;;;;;;0.32;0.30;;;5.10;99.90;;;;;;5011028;28;20070;-81
2021/11/04 06:13:37;;;;;;;0.85;0.40;;;5.20;99.90;;;;;;4999684;28;20023;-82
2021/11/04 06:16:02;;;;;;;1.67;0.60;;;5.10;99.90;;;;;;4997096;28;20026;-81
2021/11/04 06:18:43;;;;;;;3.15;0.77;;;5.20;99.90;;;;;;5014049;28;20070;-80
2021/11/04 06:21:12;;;;;;;1.27;0.90;;;5.20;99.90;;;;;;4998783;28;20030;-81
2021/11/04 06:23:38;;;;;;;0.52;0.52;;;5.20;99.90;;;;;;4993965;28;20053;-83
2021/11/04 06:26:05;;;;;;;1.67;0.68;;;5.20;99.90;;;;;;5015916;28;20101;-81
2021/11/04 06:28:30;;;;;;;2.28;0.40;;;5.20;99.90;;;;;;5005068;28;20036;-82
2021/11/04 06:30:56;;;;;;;0.80;0.47;;;5.30;99.90;;;;;;4987901;28;20026;-82
2021/11/04 06:33:22;;;;;;;2.15;0.50;;;5.20;99.90;;;;;;5010564;28;20026;-81
2021/11/04 06:35:48;;;;;;;1.02;0.50;;;5.20;99.90;;;;;;5011111;28;20065;-82
2021/11/04 06:38:13;;;;;;;0.90;0.43;;;5.20;99.90;;;;;;5004480;28;20022;-82
2021/11/04 06:40:42;;;;;;;3.33;0.40;;;5.20;99.90;;;;;;5003607;28;20026;-82
2021/11/04 06:43:08;;;;;;;0.55;0.47;;;5.30;99.90;;;;;;5011712;28;20025;-82
2021/11/04 06:45:34;;;;;;;0.50;0.50;;;5.40;99.90;;;;;;5014857;28;20015;-82
2021/11/04 06:48:12;;;;;;;1.23;0.45;;;5.30;99.90;;;;;;5023141;28;20030;-82
2021/11/04 06:50:40;;;;;;;0.30;0.30;;;5.40;99.90;;;;;;5017821;28;20058;-80
2021/11/04 06:53:53;;;;;;;0.80;0.60;;;5.40;99.90;;;;;;4995057;28;20027;-82
2021/11/04 06:56:20;;;;;;;0.50;0.40;;;5.40;99.90;;;;;;5009378;28;20038;-81
2021/11/04 06:58:48;;;;;;;0.40;0.40;;;5.40;99.90;;;;;;5005627;28;20026;-82
2021/11/04 07:01:17;;;;;;;0.98;0.52;;;5.50;99.90;;;;;;4990777;28;20030;-81
2021/11/04 07:03:50;;;;;;;0.47;0.47;;;5.50;99.90;;;;;;5011652;28;20026;-82
2021/11/04 07:06:28;;;;;;;0.38;0.38;;;5.70;99.90;;;;;;5000743;28;20027;-81
2021/11/04 07:08:59;;;;;;;1.45;0.47;;;5.70;99.90;;;;;;4983378;28;20027;-81
2021/11/04 07:11:29;;;;;;;0.50;0.50;;;5.80;99.90;;;;;;4998583;28;20056;-82
2021/11/04 07:13:55;;;;;;;0.55;0.25;;;5.80;99.90;;;;;;4992932;28;20109;-83
2021/11/04 07:16:23;;;;;;;1.90;0.50;;;5.90;99.90;;;;;;4966891;28;20033;-81
2021/11/04 07:18:51;;;;;;;1.25;0.70;;;5.90;99.90;;;;;;4984287;28;20390;-82
2021/11/04 07:21:28;;;;;;;0.52;0.52;;;6.00;99.90;;;;;;4985350;28;20049;-82
2021/11/04 07:24:00;;;;;;;0.40;0.40;;;6.00;99.90;;;;;;4987212;28;20022;-81
2021/11/04 07:26:40;;;;;;;0.47;0.47;;;6.00;99.90;;;;;;4986220;28;20102;-82
2021/11/04 07:29:08;;;;;;;1.75;0.45;;;5.90;99.90;;;;;;5002764;28;20030;-81
2021/11/04 07:31:36;;;;;;;0.98;0.90;;;5.80;99.90;;;;;;4976530;28;20030;-81
2021/11/04 07:34:05;;;;;;;0.95;0.65;;;5.70;99.90;;;;;;4984107;28;20026;-82
2021/11/04 07:36:39;;;;;;;0.55;0.50;;;5.70;99.90;;;;;;5002652;28;20033;-81
2021/11/04 07:39:07;;;;;;;0.77;0.70;;;5.60;99.90;;;;;;5001481;28;20540;-81
2021/11/04 07:41:34;;;;;;;0.70;0.70;;;5.60;99.90;;;;;;5003178;28;20030;-82
2021/11/04 07:44:02;;;;;;;0.70;0.60;;;5.60;99.90;;;;;;5003659;28;20029;-82
2021/11/04 07:46:28;;;;;;;0.60;0.60;;;5.70;99.90;;;;;;5002937;28;20418;-83
2021/11/04 07:48:55;;;;;;;0.70;0.70;;;5.80;99.90;;;;;;5002235;28;20059;-83
2021/11/04 07:51:22;;;;;;;0.32;0.32;;;6.00;99.90;;;;;;4988900;28;20023;-82
2021/11/04 07:53:48;;;;;;;0.98;0.60;;;6.10;99.90;;;;;;5003437;28;20118;-82
2021/11/04 07:56:14;;;;;;;0.50;0.50;;;6.40;99.90;;;;;;5001488;28;20058;-82
2021/11/04 07:58:40;;;;;;;0.90;0.47;;;6.50;99.90;;;;;;5001572;28;20335;-82
2021/11/04 08:01:06;;;;;;;0.43;0.43;;;6.80;99.90;;;;;;4987959;28;20022;-82
2021/11/04 08:03:32;;;;;;;0.35;0.35;;;6.80;99.90;;;;;;5006629;28;20023;-81
2021/11/04 08:06:07;;;;;;;0.45;0.45;;;6.80;99.80;;;;;;5005319;28;20030;-82
2021/11/04 08:08:35;;;;;;;0.22;0.22;;;6.80;99.60;;;;;;4985179;28;20026;-82
2021/11/04 08:11:01;;;;;;;0.65;0.40;;;6.80;99.20;;;;;;4985690;28;20419;-80
2021/11/04 08:13:27;;;;;;;0.30;0.30;;;6.80;99.60;;;;;;4988576;28;20026;-81
2021/11/04 08:15:52;;;;;;;0.32;0.30;;;6.90;99.10;;;;;;4988482;28;20021;-82
2021/11/04 08:18:18;;;;;;;1.25;0.85;;;7.10;99.30;;;;;;5010070;28;20037;-82
2021/11/04 08:20:44;;;;;;;0.47;0.40;;;7.10;98.70;;;;;;4991029;28;20100;-81
2021/11/04 08:23:12;;;;;;;0.50;0.50;;;7.20;98.80;;;;;;4987066;28;20034;-82
2021/11/04 08:25:39;;;;;;;0.73;0.40;;;7.20;98.00;;;;;;5005167;28;20057;-81
2021/11/04 08:28:07;;;;;;;0.25;0.25;;;7.30;97.60;;;;;;4994564;28;20491;-82
2021/11/04 08:30:33;;;;;;;0.40;0.40;;;7.40;97.40;;;;;;4992116;28;20022;-82
2021/11/04 08:32:59;;;;;;;0.50;0.47;;;7.50;97.30;;;;;;4988782;28;20030;-82
2021/11/04 08:35:25;;;;;;;0.93;0.40;;;7.50;97.30;;;;;;5003365;28;20030;-82
2021/11/04 08:37:51;;;;;;;0.40;0.40;;;7.40;96.40;;;;;;5001906;28;20045;-82
2021/11/04 08:40:17;;;;;;;0.88;0.50;;;7.40;95.90;;;;;;5001838;28;20523;-82
2021/11/04 08:42:46;;;;;;;0.40;0.40;;;7.30;95.60;;;;;;5003426;28;20034;-83
2021/11/04 08:45:12;;;;;;;0.60;0.40;;;7.20;95.50;;;;;;5013626;28;20034;-82
2021/11/04 08:47:39;;;;;;;0.30;0.30;;;7.20;96.10;;;;;;4998228;28;20082;-82
2021/11/04 08:50:07;;;;;;;0.60;0.50;;;7.10;95.90;;;;;;4996099;28;20038;-82
2021/11/04 08:52:33;;;;;;;1.45;0.30;;;6.90;96.50;;;;;;5004799;28;20030;-82
2021/11/04 08:54:59;;;;;;;0.20;0.20;;;6.80;96.80;;;;;;5003338;28;20026;-83
2021/11/04 08:57:25;;;;;;;0.40;0.40;;;6.70;96.90;;;;;;5012971;28;20035;-85
2021/11/04 08:59:51;;;;;;;1.15;0.30;;;6.70;97.50;;;;;;5008515;28;20049;-84
2021/11/04 09:02:19;;;;;;;0.60;0.60;;;6.80;97.60;;;;;;5006929;28;20086;-84
2021/11/04 09:04:49;;;;;;;0.60;0.40;;;6.80;97.00;;;;;;5014943;28;20014;-84
2021/11/04 09:07:17;;;;;;;2.17;0.50;;;6.80;97.20;;;;;;4993398;28;20434;-84
2021/11/04 09:09:43;;;;;;;0.73;0.60;;;6.80;97.60;;;;;;5004113;28;20023;-85
2021/11/04 09:12:09;;;;;;;0.57;0.43;;;6.80;97.60;;;;;;4991220;28;20462;-85
2021/11/04 09:14:36;;;;;;;1.30;0.55;;;6.90;97.80;;;;;;5018911;28;20022;-84
2021/11/04 09:17:02;;;;;;;2.20;0.65;;;6.90;97.70;;;;;;4992096;28;20030;-85
2021/11/04 09:19:28;;;;;;;0.95;0.38;;;6.90;97.60;;;;;;5006849;28;20106;-85
2021/11/04 09:21:54;;;;;;;0.77;0.40;;;7.00;97.50;;;;;;5009553;28;20053;-86
2021/11/04 09:24:20;;;;;;;0.75;0.25;;;7.20;97.10;;;;;;4998995;28;20050;-85
2021/11/04 09:26:46;;;;;;;0.28;0.28;;;7.30;96.60;;;;;;4994896;28;20030;-84
2021/11/04 09:29:11;;;;;;;0.50;0.20;;;7.50;95.70;;;;;;5007385;28;20034;-84
2021/11/04 09:31:37;;;;;;;0.40;0.40;;;7.70;95.70;;;;;;4992689;28;20077;-84
2021/11/04 09:34:03;;;;;;;0.50;0.40;;;7.90;95.60;;;;;;4984587;28;20050;-84
2021/11/04 09:36:31;;;;;;;0.60;0.50;;;8.10;95.00;;;;;;5007001;28;20094;-83
2021/11/04 09:38:58;;;;;;;0.40;0.40;;;8.20;94.30;;;;;;4995857;28;20027;-85
2021/11/04 09:41:24;;;;;;;0.80;0.43;;;8.40;93.90;;;;;;4999143;28;20026;-85
2021/11/04 09:43:50;;;;;;;0.52;0.40;;;8.60;93.40;;;;;;5008947;28;20034;-84
2021/11/04 09:46:18;;;;;;;2.28;0.63;;;8.90;92.70;;;;;;4993208;28;20050;-83
2021/11/04 09:48:44;;;;;;;0.80;0.50;;;9.00;91.40;;;;;;4992259;28;20027;-83
2021/11/04 09:51:10;;;;;;;1.75;0.52;;;8.90;91.20;;;;;;5008331;28;20022;-85
2021/11/04 09:53:36;;;;;;;0.20;0.20;;;8.90;91.20;;;;;;5007812;28;20065;-83
2021/11/04 09:56:03;;;;;;;0.25;0.22;;;8.80;91.10;;;;;;5009946;28;20011;-85
2021/11/04 09:58:31;;;;;;;0.35;0.30;;;8.80;90.90;;;;;;4994339;28;20032;-83
2021/11/04 10:01:37;;;;;;;0.43;0.43;;;8.70;91.20;;;;;;5011765;28;20065;-85
2021/11/04 10:04:03;;;;;;;0.43;0.43;;;8.80;90.90;;;;;;4962695;28;20042;-83
2021/11/04 10:06:31;;;;;;;0.50;0.50;;;9.00;90.80;;;;;;4992150;28;20023;-83
2021/11/04 10:09:00;;;;;;;0.73;0.60;;;9.20;88.90;;;;;;4988347;28;20082;-84
2021/11/04 10:11:34;;;;;;;2.08;0.85;;;9.20;89.30;;;;;;4983234;28;20026;-83
2021/11/04 10:14:05;;;;;;;0.45;0.45;;;9.20;89.50;;;;;;5007342;28;20119;-85
2021/11/04 10:16:33;;;;;;;1.33;0.88;;;9.30;89.90;;;;;;4993916;28;20057;-83
2021/11/04 10:19:06;;;;;;;0.70;0.70;;;9.60;89.10;;;;;;5009446;28;20014;-84
2021/11/04 10:21:34;;;;;;;2.50;0.88;;;9.90;89.00;;;;;;5012621;28;20022;-83
2021/11/04 10:24:04;;;;;;;0.65;0.65;;;10.20;84.90;;;;;;4994792;28;20009;-84
2021/11/04 10:26:36;;;;;;;0.77;0.52;;;10.40;83.60;;;;;;4999545;28;20037;-84
2021/11/04 10:29:10;;;;;;;0.60;0.60;;;10.30;83.40;;;;;;5016850;28;20010;-84
2021/11/04 10:31:43;;;;;;;0.95;0.82;;;10.20;82.90;;;;;;5000138;28;20033;-84
2021/11/04 10:34:31;;;;;;;1.33;0.70;;;10.00;82.90;;;;;;5014332;28;20333;-84
2021/11/04 10:37:09;;;;;;;2.83;0.90;;;9.70;83.30;;;;;;5015722;28;20205;-85
2021/11/04 10:39:42;;;;;;;0.68;0.68;;;9.30;84.80;;;;;;5016616;28;20042;-84
2021/11/04 10:42:09;;;;;;;0.85;0.70;;;9.00;85.90;;;;;;4999004;28;20033;-84
2021/11/04 10:44:35;;;;;;;0.60;0.60;;;8.90;86.90;;;;;;5011588;28;20053;-83
2021/11/04 10:47:01;;;;;;;2.75;0.82;;;8.90;88.70;;;;;;5008465;28;20053;-84
2021/11/04 10:49:44;;;;;;;2.20;2.00;;;9.00;88.70;;;;;;5009678;28;20022;-85
2021/11/04 10:52:10;;;;;;;5.70;4.90;;;9.20;87.30;;;;;;4993072;28;20027;-84
2021/11/04 10:54:49;;;;;;;4.65;3.08;;;9.40;86.60;;;;;;4985784;28;20037;-83
2021/11/04 10:57:33;;;;;;;2.33;1.70;;;9.60;86.30;;;;;;5012282;28;20027;-83
2021/11/04 11:00:20;;;;;;;1.20;1.10;;;9.70;85.60;;;;;;5004165;28;20022;-83
2021/11/04 11:03:01;;;;;;;1.95;1.50;;;9.90;84.50;;;;;;5014423;28;20075;-82
2021/11/04 11:05:34;;;;;;;3.03;2.83;;;9.70;84.30;;;;;;5014231;28;20434;-83
2021/11/04 11:08:01;;;;;;;2.90;2.70;;;9.60;84.10;;;;;;5005561;28;20022;-83
2021/11/04 11:10:31;;;;;;;4.72;4.20;;;9.60;84.80;;;;;;5003546;28;20022;-83
2021/11/04 11:12:57;;;;;;;1.50;1.40;;;9.60;83.50;;;;;;5009975;28;20253;-83
2021/11/04 11:15:23;;;;;;;0.95;0.85;;;9.60;83.90;;;;;;4996345;28;20034;-82
2021/11/04 11:17:50;;;;;;;0.93;0.73;;;9.50;84.00;;;;;;4998274;28;20032;-83
2021/11/04 11:20:16;;;;;;;3.40;1.70;;;9.40;84.10;;;;;;5017303;28;20077;-82
2021/11/04 11:22:44;;;;;;;0.75;0.75;;;9.30;84.20;;;;;;5012448;28;20030;-83
2021/11/04 11:25:11;;;;;;;1.45;0.85;;;9.30;84.80;;;;;;4988798;28;20049;-83
2021/11/04 11:27:37;;;;;;;1.58;0.93;;;9.40;84.20;;;;;;4990748;28;20421;-84
2021/11/04 11:30:11;;;;;;;2.03;1.20;;;9.40;84.20;;;;;;5007253;28;20117;-83
2021/11/04 11:32:38;;;;;;;1.75;0.93;;;9.40;83.30;;;;;;4991223;28;20038;-83
2021/11/04 11:35:15;;;;;;;1.35;0.82;;;9.40;82.80;;;;;;4996742;28;20022;-81
2021/11/04 11:37:56;;;;;;;0.75;0.73;;;9.50;83.40;;;;;;5012200;28;20022;-83
2021/11/04 11:40:32;;;;;;;3.40;1.25;;;9.60;82.60;;;;;;5007858;28;20027;-85
2021/11/04 11:43:09;;;;;;;0.90;0.82;;;9.70;82.70;;;;;;4990472;28;20049;-83
2021/11/04 11:45:38;;;;;;;0.63;0.60;;;10.00;80.90;;;;;;4990412;28;20042;-84
2021/11/04 11:48:20;;;;;;;12.25;1.00;;;10.10;79.30;;;;;;4983958;28;20023;-82
2021/11/04 11:50:48;;;;;;;1.05;0.68;;;10.20;77.80;;;;;;5004602;28;20031;-83
2021/11/04 11:53:25;;;;;;;0.90;0.80;;;10.20;77.50;;;;;;4990953;28;20037;-83
2021/11/04 11:55:55;;;;;;;1.10;0.70;;;10.00;79.20;;;;;;4990708;28;20033;-84
2021/11/04 11:58:33;;;;;;;0.75;0.57;;;10.00;78.60;;;;;;4994071;28;20080;-84
2021/11/04 12:01:12;;;;;;;2.28;1.33;;;10.10;78.40;;;;;;5006724;28;20026;-83
2021/11/04 12:03:39;;;;;;;1.50;1.20;;;10.00;77.70;;;;;;5004176;28;20023;-84
2021/11/04 12:06:11;;;;;;;3.92;2.30;;;9.90;78.00;;;;;;5004527;28;20022;-83
2021/11/04 12:08:49;;;;;;;1.30;1.02;;;9.60;79.60;;;;;;4992142;28;20034;-83
2021/11/04 12:11:33;;;;;;;2.13;1.80;;;9.40;81.30;;;;;;5013691;28;20019;-83
2021/11/04 12:14:24;;;;;;;1.52;1.15;;;9.30;81.10;;;;;;5008958;28;20046;-83
2021/11/04 12:17:08;;;;;;;2.22;0.50;;;9.10;82.60;;;;;;4987350;28;20117;-82
2021/11/04 12:19:55;;;;;;;1.30;0.90;;;8.90;83.00;;;;;;5014628;28;20054;-82
2021/11/04 12:22:25;;;;;;;2.10;1.40;;;8.70;84.00;;;;;;5009153;28;20037;-83
2021/11/04 12:24:56;;;;;;;1.95;1.02;;;8.60;84.10;;;;;;4990677;28;20031;-81
2021/11/04 12:27:23;;;;;;;1.40;1.20;;;8.40;85.40;;;;;;4994502;28;20026;-81
2021/11/04 12:29:51;;;;;;;3.28;1.23;;;8.30;86.60;;;;;;4993697;28;20038;-81
2021/11/04 12:32:19;;;;;;;1.38;1.10;;;8.30;87.10;;;;;;5007962;28;20015;-83
2021/11/04 12:35:00;;;;;;;2.78;1.35;;;8.30;87.30;;;;;;4991237;28;20029;-81
2021/11/04 12:37:34;;;;;;;2.40;0.90;;;8.30;87.40;;;;;;4998523;28;20023;-81
2021/11/04 12:40:00;;;;;;;2.08;1.13;;;8.40;87.50;;;;;;5011708;28;20015;-82
2021/11/04 12:42:27;;;;;;;1.83;1.25;;;8.40;88.20;;;;;;5001865;28;20034;-83
2021/11/04 12:44:56;;;;;;;6.25;3.53;;;8.40;88.60;;;;;;4990215;28;20090;-81
2021/11/04 12:47:26;;;;;;;9.82;4.00;;;8.40;90.00;;;;;;5011393;28;20090;-82
2021/11/04 12:49:53;;;;;;;6.25;3.22;;;8.30;90.40;;;;;;5009106;28;20015;-82
2021/11/04 12:52:21;;;;;;;6.70;3.15;;;8.10;91.00;;;;;;5013217;28;20026;-79
2021/11/04 12:55:00;;;;;;;8.75;4.00;;;8.10;91.40;;;;;;4994979;28;20034;-81
2021/11/04 12:57:29;;;;;;;2.53;2.00;;;8.00;92.00;;;;;;5011153;28;20046;-80
2021/11/04 13:00:05;;;;;;;3.28;2.13;;;8.00;92.60;;;;;;5006606;28;20121;-82
2021/11/04 13:02:37;;;;;;;4.28;2.30;;;8.00;92.90;;;;;;5004033;28;20049;-81
2021/11/04 13:05:11;;;;;;;4.30;2.70;;;8.00;93.20;;;;;;4983936;28;20022;-82